sensor_id;sensor_type;location;lat;lon;timestamp;temperature;humidity
11812;DHT22;5963;50.184;9.162;2023-03-01T00:02:22;-1.10;99.90
11812;DHT22;5963;50.184;9.162;2023-03-01T00:04:52;-1.10;99.90
11812;DHT22;5963;50.184;9.162;2023-03-01T00:07:22;-1.10;99.90
11812;DHT22;5963;50.184;9.162;2023-03-01T00:09:52;-1.10;99.90
11812;DHT22;5963;50.184;9.162;2023-03-01T00:12:22;-1.10;99.90
11812;DHT22;5963;50.184;9.162;2023-03-01T00:14:53;-1.10;99.90
11812;DHT22;5963;50.184;9.162;2023-03-01T00:17:24;-1.10;99.90
11812;DHT22;5963;50.184;9.162;2023-03-01T00:19:54;-1.10;99.90
11812;DHT22;5963;50.184;9.162;2023-03-01T00:22:24;-1.00;99.90
11812;DHT22;5963;50.184;9.162;2023-03-01T00:24:56;-1.10;99.90
11812;DHT22;5963;50.184;9.162;2023-03-01T00:27:29;-1.00;99.90
11812;DHT22;5963;50.184;9.162;2023-03-01T00:30:00;-1.00;99.90
11812;DHT22;5963;50.184;9.162;2023-03-01T00:32:33;-0.90;99.90
11812;DHT22;5963;50.184;9.162;2023-03-01T00:35:03;-1.00;99.90
11812;DHT22;5963;50.184;9.162;2023-03-01T00:37:35;-0.90;99.90
11812;DHT22;5963;50.184;9.162;2023-03-01T00:40:07;-0.90;99.90
11812;DHT22;5963;50.184;9.162;2023-03-01T00:42:36;-0.90;99.90
11812;DHT22;5963;50.184;9.162;2023-03-01T00:45:10;-0.90;99.90
11812;DHT22;5963;50.184;9.162;2023-03-01T00:47:42;-0.90;99.90
11812;DHT22;5963;50.184;9.162;2023-03-01T00:50:13;-1.00;99.90
11812;DHT22;5963;50.184;9.162;2023-03-01T00:52:47;-0.80;99.90
11812;DHT22;5963;50.184;9.162;2023-03-01T00:55:16;-0.90;99.90
11812;DHT22;5963;50.184;9.162;2023-03-01T00:57:47;-1.00;99.90
11812;DHT22;5963;50.184;9.162;2023-03-01T01:00:20;-1.00;99.90
11812;DHT22;5963;50.184;9.162;2023-03-01T01:02:53;-1.10;99.90
11812;DHT22;5963;50.184;9.162;2023-03-01T01:05:24;-1.10;99.90
11812;DHT22;5963;50.184;9.162;2023-03-01T01:07:53;-1.10;99.90
11812;DHT22;5963;50.184;9.162;2023-03-01T01:10:23;-1.10;99.90
11812;DHT22;5963;50.184;9.162;2023-03-01T01:12:54;-1.10;99.90
11812;DHT22;5963;50.184;9.162;2023-03-01T01:15:25;-1.10;99.90
11812;DHT22;5963;50.184;9.162;2023-03-01T01:17:55;-1.10;99.90
11812;DHT22;5963;50.184;9.162;2023-03-01T01:20:25;-1.10;99.90
11812;DHT22;5963;50.184;9.162;2023-03-01T01:22:57;-1.10;99.90
11812;DHT22;5963;50.184;9.162;2023-03-01T01:25:25;-1.10;99.90
11812;DHT22;5963;50.184;9.162;2023-03-01T01:27:55;-1.10;99.90
11812;DHT22;5963;50.184;9.162;2023-03-01T01:30:27;-1.10;99.90
11812;DHT22;5963;50.184;9.162;2023-03-01T01:32:56;-1.00;99.90
11812;DHT22;5963;50.184;9.162;2023-03-01T01:35:27;-1.00;99.90
11812;DHT22;5963;50.184;9.162;2023-03-01T01:37:56;-1.00;99.90
11812;DHT22;5963;50.184;9.162;2023-03-01T01:40:27;-1.00;99.90
11812;DHT22;5963;50.184;9.162;2023-03-01T01:42:57;-1.00;99.90
11812;DHT22;5963;50.184;9.162;2023-03-01T01:45:32;-1.00;99.90
11812;DHT22;5963;50.184;9.162;2023-03-01T01:48:06;-1.10;99.90
11812;DHT22;5963;50.184;9.162;2023-03-01T01:50:40;-1.20;99.90
11812;DHT22;5963;50.184;9.162;2023-03-01T01:53:14;-1.20;99.90
11812;DHT22;5963;50.184;9.162;2023-03-01T01:55:47;-1.20;99.90
11812;DHT22;5963;50.184;9.162;2023-03-01T01:58:20;-1.30;99.90
11812;DHT22;5963;50.184;9.162;2023-03-01T02:00:53;-1.30;99.90
11812;DHT22;5963;50.184;9.162;2023-03-01T02:03:27;-1.40;99.90
11812;DHT22;5963;50.184;9.162;2023-03-01T02:06:06;-1.40;99.90
11812;DHT22;5963;50.184;9.162;2023-03-01T02:08:40;-1.30;99.90
11812;DHT22;5963;50.184;9.162;2023-03-01T02:11:12;-1.30;99.90
11812;DHT22;5963;50.184;9.162;2023-03-01T02:13:45;-1.20;99.90
11812;DHT22;5963;50.184;9.162;2023-03-01T02:16:18;-1.20;99.90
11812;DHT22;5963;50.184;9.162;2023-03-01T02:18:48;-1.30;99.90
11812;DHT22;5963;50.184;9.162;2023-03-01T02:21:30;-1.20;99.90
11812;DHT22;5963;50.184;9.162;2023-03-01T02:24:03;-1.20;99.90
11812;DHT22;5963;50.184;9.162;2023-03-01T02:26:40;-1.10;99.90
11812;DHT22;5963;50.184;9.162;2023-03-01T02:29:11;-1.10;99.90
11812;DHT22;5963;50.184;9.162;2023-03-01T02:31:41;-1.00;99.90
11812;DHT22;5963;50.184;9.162;2023-03-01T02:34:17;-1.00;99.90
11812;DHT22;5963;50.184;9.162;2023-03-01T02:36:50;-1.00;99.90
11812;DHT22;5963;50.184;9.162;2023-03-01T02:39:25;-1.00;99.90
11812;DHT22;5963;50.184;9.162;2023-03-01T02:41:56;-0.90;99.90
11812;DHT22;5963;50.184;9.162;2023-03-01T02:44:27;-1.00;99.90
11812;DHT22;5963;50.184;9.162;2023-03-01T02:46:58;-1.00;99.90
11812;DHT22;5963;50.184;9.162;2023-03-01T02:49:32;-1.00;99.90
11812;DHT22;5963;50.184;9.162;2023-03-01T02:52:18;-1.00;99.90
11812;DHT22;5963;50.184;9.162;2023-03-01T02:54:54;-1.00;99.90
11812;DHT22;5963;50.184;9.162;2023-03-01T02:57:31;-1.00;99.90
11812;DHT22;5963;50.184;9.162;2023-03-01T03:00:14;-1.00;99.90
11812;DHT22;5963;50.184;9.162;2023-03-01T03:02:49;-1.00;99.90
11812;DHT22;5963;50.184;9.162;2023-03-01T03:05:21;-1.00;99.90
11812;DHT22;5963;50.184;9.162;2023-03-01T03:08:02;-1.00;99.90
11812;DHT22;5963;50.184;9.162;2023-03-01T03:10:35;-1.00;99.90
11812;DHT22;5963;50.184;9.162;2023-03-01T03:13:08;-1.00;99.90
11812;DHT22;5963;50.184;9.162;2023-03-01T03:15:41;-1.10;99.90
11812;DHT22;5963;50.184;9.162;2023-03-01T03:18:13;-1.00;99.90
11812;DHT22;5963;50.184;9.162;2023-03-01T03:20:44;-1.10;99.90
11812;DHT22;5963;50.184;9.162;2023-03-01T03:23:14;-1.10;99.90
11812;DHT22;5963;50.184;9.162;2023-03-01T03:25:47;-1.10;99.90
11812;DHT22;5963;50.184;9.162;2023-03-01T03:28:17;-1.10;99.90
11812;DHT22;5963;50.184;9.162;2023-03-01T03:30:48;-1.10;99.90
11812;DHT22;5963;50.184;9.162;2023-03-01T03:33:18;-1.20;99.90
11812;DHT22;5963;50.184;9.162;2023-03-01T03:35:49;-1.20;99.90
11812;DHT22;5963;50.184;9.162;2023-03-01T03:38:21;-1.20;99.90
11812;DHT22;5963;50.184;9.162;2023-03-01T03:40:52;-1.30;99.90
11812;DHT22;5963;50.184;9.162;2023-03-01T03:43:39;-1.20;99.90
11812;DHT22;5963;50.184;9.162;2023-03-01T03:46:11;-1.10;99.90
11812;DHT22;5963;50.184;9.162;2023-03-01T03:48:42;-1.20;99.90
11812;DHT22;5963;50.184;9.162;2023-03-01T03:51:14;-1.20;99.90
11812;DHT22;5963;50.184;9.162;2023-03-01T03:53:45;-1.20;99.90
11812;DHT22;5963;50.184;9.162;2023-03-01T03:56:15;-1.20;99.90
11812;DHT22;5963;50.184;9.162;2023-03-01T03:58:45;-1.20;99.90
11812;DHT22;5963;50.184;9.162;2023-03-01T04:01:16;-1.20;99.90
11812;DHT22;5963;50.184;9.162;2023-03-01T04:03:46;-1.30;99.90
11812;DHT22;5963;50.184;9.162;2023-03-01T04:06:16;-1.30;99.90
11812;DHT22;5963;50.184;9.162;2023-03-01T04:08:46;-1.30;99.90
11812;DHT22;5963;50.184;9.162;2023-03-01T04:11:20;-1.30;99.90
11812;DHT22;5963;50.184;9.162;2023-03-01T04:13:57;-1.40;99.90
11812;DHT22;5963;50.184;9.162;2023-03-01T04:16:30;-1.40;99.90
11812;DHT22;5963;50.184;9.162;2023-03-01T04:19:01;-1.40;99.90
11812;DHT22;5963;50.184;9.162;2023-03-01T04:21:31;-1.40;99.90
11812;DHT22;5963;50.184;9.162;2023-03-01T04:24:01;-1.40;99.90
11812;DHT22;5963;50.184;9.162;2023-03-01T04:26:32;-1.30;99.90
11812;DHT22;5963;50.184;9.162;2023-03-01T04:29:02;-1.30;99.90
11812;DHT22;5963;50.184;9.162;2023-03-01T04:31:33;-1.30;99.90
11812;DHT22;5963;50.184;9.162;2023-03-01T04:34:02;-1.30;99.90
11812;DHT22;5963;50.184;9.162;2023-03-01T04:36:32;-1.30;99.90
11812;DHT22;5963;50.184;9.162;2023-03-01T04:39:04;-1.30;99.90
11812;DHT22;5963;50.184;9.162;2023-03-01T04:41:41;-1.30;99.90
11812;DHT22;5963;50.184;9.162;2023-03-01T04:44:11;-1.40;99.90
11812;DHT22;5963;50.184;9.162;2023-03-01T04:46:43;-1.40;99.90
11812;DHT22;5963;50.184;9.162;2023-03-01T04:49:13;-1.40;99.90
11812;DHT22;5963;50.184;9.162;2023-03-01T04:51:44;-1.40;99.90
11812;DHT22;5963;50.184;9.162;2023-03-01T04:54:14;-1.40;99.90
11812;DHT22;5963;50.184;9.162;2023-03-01T04:56:44;-1.40;99.90
11812;DHT22;5963;50.184;9.162;2023-03-01T04:59:14;-1.40;99.90
11812;DHT22;5963;50.184;9.162;2023-03-01T05:01:46;-1.40;99.90
11812;DHT22;5963;50.184;9.162;2023-03-01T05:04:17;-1.40;99.90
11812;DHT22;5963;50.184;9.162;2023-03-01T05:06:47;-1.40;99.90
11812;DHT22;5963;50.184;9.162;2023-03-01T05:09:16;-1.40;99.90
11812;DHT22;5963;50.184;9.162;2023-03-01T05:11:46;-1.40;99.90
11812;DHT22;5963;50.184;9.162;2023-03-01T05:14:16;-1.40;99.90
11812;DHT22;5963;50.184;9.162;2023-03-01T05:16:47;-1.40;99.90
11812;DHT22;5963;50.184;9.162;2023-03-01T05:19:18;-1.40;99.90
11812;DHT22;5963;50.184;9.162;2023-03-01T05:21:51;-1.40;99.90
11812;DHT22;5963;50.184;9.162;2023-03-01T05:24:35;-1.40;99.90
11812;DHT22;5963;50.184;9.162;2023-03-01T05:27:05;-1.40;99.90
11812;DHT22;5963;50.184;9.162;2023-03-01T05:29:35;-1.40;99.90
11812;DHT22;5963;50.184;9.162;2023-03-01T05:32:06;-1.40;99.90
11812;DHT22;5963;50.184;9.162;2023-03-01T05:34:37;-1.40;99.90
11812;DHT22;5963;50.184;9.162;2023-03-01T05:37:07;-1.40;99.90
11812;DHT22;5963;50.184;9.162;2023-03-01T05:39:38;-1.40;99.90
11812;DHT22;5963;50.184;9.162;2023-03-01T05:42:09;-1.40;99.90
11812;DHT22;5963;50.184;9.162;2023-03-01T05:44:40;-1.40;99.90
11812;DHT22;5963;50.184;9.162;2023-03-01T05:47:11;-1.40;99.90
11812;DHT22;5963;50.184;9.162;2023-03-01T05:49:41;-1.40;99.90
11812;DHT22;5963;50.184;9.162;2023-03-01T05:52:12;-1.40;99.90
11812;DHT22;5963;50.184;9.162;2023-03-01T05:54:42;-1.30;99.90
11812;DHT22;5963;50.184;9.162;2023-03-01T05:57:12;-1.30;99.90
11812;DHT22;5963;50.184;9.162;2023-03-01T05:59:43;-1.30;99.90
11812;DHT22;5963;50.184;9.162;2023-03-01T06:02:17;-1.20;99.90
11812;DHT22;5963;50.184;9.162;2023-03-01T06:04:53;-1.20;99.90
11812;DHT22;5963;50.184;9.162;2023-03-01T06:07:23;-1.20;99.90
11812;DHT22;5963;50.184;9.162;2023-03-01T06:09:53;-1.20;99.90
11812;DHT22;5963;50.184;9.162;2023-03-01T06:12:29;-1.20;99.90
11812;DHT22;5963;50.184;9.162;2023-03-01T06:15:05;-1.20;99.90
11812;DHT22;5963;50.184;9.162;2023-03-01T06:17:45;-1.20;99.90
11812;DHT22;5963;50.184;9.162;2023-03-01T06:20:18;-1.20;99.90
11812;DHT22;5963;50.184;9.162;2023-03-01T06:22:50;-1.20;99.90
11812;DHT22;5963;50.184;9.162;2023-03-01T06:25:28;-1.10;99.90
11812;DHT22;5963;50.184;9.162;2023-03-01T06:28:03;-1.10;99.90
11812;DHT22;5963;50.184;9.162;2023-03-01T06:30:34;-1.10;99.90
11812;DHT22;5963;50.184;9.162;2023-03-01T06:33:05;-1.10;99.90
11812;DHT22;5963;50.184;9.162;2023-03-01T06:35:35;-1.10;99.90
11812;DHT22;5963;50.184;9.162;2023-03-01T06:38:08;-1.10;99.90
11812;DHT22;5963;50.184;9.162;2023-03-01T06:40:38;-1.10;99.90
11812;DHT22;5963;50.184;9.162;2023-03-01T06:43:09;-1.00;99.90
11812;DHT22;5963;50.184;9.162;2023-03-01T06:45:41;-1.00;99.90
11812;DHT22;5963;50.184;9.162;2023-03-01T06:48:15;-1.00;99.90
11812;DHT22;5963;50.184;9.162;2023-03-01T06:50:49;-0.90;99.90
11812;DHT22;5963;50.184;9.162;2023-03-01T06:53:22;-0.90;99.90
11812;DHT22;5963;50.184;9.162;2023-03-01T06:55:54;-0.90;99.90
11812;DHT22;5963;50.184;9.162;2023-03-01T06:58:24;-0.80;99.90
11812;DHT22;5963;50.184;9.162;2023-03-01T07:00:53;-0.80;99.90
11812;DHT22;5963;50.184;9.162;2023-03-01T07:03:26;-0.70;99.90
11812;DHT22;5963;50.184;9.162;2023-03-01T07:06:03;-0.60;99.90
11812;DHT22;5963;50.184;9.162;2023-03-01T07:08:33;-0.50;99.90
11812;DHT22;5963;50.184;9.162;2023-03-01T07:11:03;-0.30;99.90
11812;DHT22;5963;50.184;9.162;2023-03-01T07:13:35;-0.10;99.90
11812;DHT22;5963;50.184;9.162;2023-03-01T07:16:06;0.00;99.90
11812;DHT22;5963;50.184;9.162;2023-03-01T07:18:37;-0.10;99.90
11812;DHT22;5963;50.184;9.162;2023-03-01T07:21:12;0.00;99.90
11812;DHT22;5963;50.184;9.162;2023-03-01T07:23:43;0.00;99.90
11812;DHT22;5963;50.184;9.162;2023-03-01T07:26:12;0.00;99.90
11812;DHT22;5963;50.184;9.162;2023-03-01T07:28:42;0.20;99.90
11812;DHT22;5963;50.184;9.162;2023-03-01T07:31:12;0.30;99.90
11812;DHT22;5963;50.184;9.162;2023-03-01T07:33:43;0.40;99.90
11812;DHT22;5963;50.184;9.162;2023-03-01T07:36:14;0.50;99.90
11812;DHT22;5963;50.184;9.162;2023-03-01T07:38:43;0.60;99.90
11812;DHT22;5963;50.184;9.162;2023-03-01T07:41:13;0.70;99.90
11812;DHT22;5963;50.184;9.162;2023-03-01T07:43:44;0.80;99.90
11812;DHT22;5963;50.184;9.162;2023-03-01T07:46:14;0.90;99.90
11812;DHT22;5963;50.184;9.162;2023-03-01T07:48:45;0.90;99.90
11812;DHT22;5963;50.184;9.162;2023-03-01T07:51:15;1.00;99.90
11812;DHT22;5963;50.184;9.162;2023-03-01T07:53:49;1.00;99.90
11812;DHT22;5963;50.184;9.162;2023-03-01T07:56:20;1.10;99.90
11812;DHT22;5963;50.184;9.162;2023-03-01T07:58:52;1.10;99.90
11812;DHT22;5963;50.184;9.162;2023-03-01T08:01:22;1.20;99.90
11812;DHT22;5963;50.184;9.162;2023-03-01T08:03:54;1.30;99.90
11812;DHT22;5963;50.184;9.162;2023-03-01T08:06:28;1.40;99.90
11812;DHT22;5963;50.184;9.162;2023-03-01T08:08:58;1.40;99.90
11812;DHT22;5963;50.184;9.162;2023-03-01T08:11:34;1.40;99.90
11812;DHT22;5963;50.184;9.162;2023-03-01T08:14:07;1.50;99.90
11812;DHT22;5963;50.184;9.162;2023-03-01T08:16:39;1.50;99.90
11812;DHT22;5963;50.184;9.162;2023-03-01T08:19:12;1.60;99.90
11812;DHT22;5963;50.184;9.162;2023-03-01T08:21:42;1.70;99.90
11812;DHT22;5963;50.184;9.162;2023-03-01T08:24:11;1.70;99.90
11812;DHT22;5963;50.184;9.162;2023-03-01T08:26:42;2.00;99.90
11812;DHT22;5963;50.184;9.162;2023-03-01T08:29:12;2.20;99.90
11812;DHT22;5963;50.184;9.162;2023-03-01T08:31:42;2.40;99.90
11812;DHT22;5963;50.184;9.162;2023-03-01T08:34:15;2.30;99.90
11812;DHT22;5963;50.184;9.162;2023-03-01T08:36:46;2.40;99.90
11812;DHT22;5963;50.184;9.162;2023-03-01T08:39:16;2.60;99.90
11812;DHT22;5963;50.184;9.162;2023-03-01T08:41:48;2.80;99.90
11812;DHT22;5963;50.184;9.162;2023-03-01T08:44:20;2.70;99.90
11812;DHT22;5963;50.184;9.162;2023-03-01T08:46:50;2.80;99.90
11812;DHT22;5963;50.184;9.162;2023-03-01T08:49:22;2.90;99.90
11812;DHT22;5963;50.184;9.162;2023-03-01T08:51:52;3.00;99.90
11812;DHT22;5963;50.184;9.162;2023-03-01T08:54:28;3.10;99.90
11812;DHT22;5963;50.184;9.162;2023-03-01T08:56:59;2.90;99.90
11812;DHT22;5963;50.184;9.162;2023-03-01T08:59:32;2.90;99.90
11812;DHT22;5963;50.184;9.162;2023-03-01T09:02:17;3.10;99.90
11812;DHT22;5963;50.184;9.162;2023-03-01T09:04:49;3.20;99.90
11812;DHT22;5963;50.184;9.162;2023-03-01T09:07:19;3.30;99.90
11812;DHT22;5963;50.184;9.162;2023-03-01T09:09:49;3.50;99.90
11812;DHT22;5963;50.184;9.162;2023-03-01T09:12:22;3.70;99.90
11812;DHT22;5963;50.184;9.162;2023-03-01T09:14:56;3.70;99.90
11812;DHT22;5963;50.184;9.162;2023-03-01T09:17:25;3.80;99.90
11812;DHT22;5963;50.184;9.162;2023-03-01T09:19:58;4.00;99.90
11812;DHT22;5963;50.184;9.162;2023-03-01T09:22:28;3.90;99.90
11812;DHT22;5963;50.184;9.162;2023-03-01T09:24:58;4.00;99.90
11812;DHT22;5963;50.184;9.162;2023-03-01T09:27:29;4.30;99.90
11812;DHT22;5963;50.184;9.162;2023-03-01T09:30:01;4.10;99.90
11812;DHT22;5963;50.184;9.162;2023-03-01T09:32:34;4.20;99.90
11812;DHT22;5963;50.184;9.162;2023-03-01T09:35:05;4.20;99.90
11812;DHT22;5963;50.184;9.162;2023-03-01T09:37:36;4.50;99.90
11812;DHT22;5963;50.184;9.162;2023-03-01T09:40:10;4.50;99.90
11812;DHT22;5963;50.184;9.162;2023-03-01T09:42:48;4.50;99.90
11812;DHT22;5963;50.184;9.162;2023-03-01T09:45:25;4.70;99.90
11812;DHT22;5963;50.184;9.162;2023-03-01T09:47:56;4.70;99.90
11812;DHT22;5963;50.184;9.162;2023-03-01T09:50:31;4.90;99.90
11812;DHT22;5963;50.184;9.162;2023-03-01T09:53:05;5.10;99.90
11812;DHT22;5963;50.184;9.162;2023-03-01T09:55:44;5.10;99.90
11812;DHT22;5963;50.184;9.162;2023-03-01T09:58:31;5.10;99.90
11812;DHT22;5963;50.184;9.162;2023-03-01T10:01:25;5.40;99.90
11812;DHT22;5963;50.184;9.162;2023-03-01T10:04:25;5.50;99.90
11812;DHT22;5963;50.184;9.162;2023-03-01T10:07:04;5.70;99.90
11812;DHT22;5963;50.184;9.162;2023-03-01T10:09:38;5.80;99.90
11812;DHT22;5963;50.184;9.162;2023-03-01T10:12:12;5.80;99.90
11812;DHT22;5963;50.184;9.162;2023-03-01T10:14:48;6.00;99.90
11812;DHT22;5963;50.184;9.162;2023-03-01T10:17:26;6.00;99.90
11812;DHT22;5963;50.184;9.162;2023-03-01T10:19:57;6.00;99.90
11812;DHT22;5963;50.184;9.162;2023-03-01T10:22:42;6.10;99.90
11812;DHT22;5963;50.184;9.162;2023-03-01T10:25:17;6.20;99.90
11812;DHT22;5963;50.184;9.162;2023-03-01T10:27:59;6.30;99.90
11812;DHT22;5963;50.184;9.162;2023-03-01T10:30:34;6.40;99.90
11812;DHT22;5963;50.184;9.162;2023-03-01T10:33:11;6.60;99.90
11812;DHT22;5963;50.184;9.162;2023-03-01T10:35:43;6.60;99.90
11812;DHT22;5963;50.184;9.162;2023-03-01T10:38:16;6.40;99.90
11812;DHT22;5963;50.184;9.162;2023-03-01T10:40:53;6.60;99.90
11812;DHT22;5963;50.184;9.162;2023-03-01T10:43:23;6.70;99.90
11812;DHT22;5963;50.184;9.162;2023-03-01T10:45:54;6.90;99.90
11812;DHT22;5963;50.184;9.162;2023-03-01T10:48:26;6.90;99.90
11812;DHT22;5963;50.184;9.162;2023-03-01T10:51:07;6.90;99.90
11812;DHT22;5963;50.184;9.162;2023-03-01T10:53:40;7.00;99.90
11812;DHT22;5963;50.184;9.162;2023-03-01T10:56:12;7.10;99.90
11812;DHT22;5963;50.184;9.162;2023-03-01T10:58:59;7.00;99.90
11812;DHT22;5963;50.184;9.162;2023-03-01T11:01:30;7.20;99.90
11812;DHT22;5963;50.184;9.162;2023-03-01T11:04:13;7.20;99.90
11812;DHT22;5963;50.184;9.162;2023-03-01T11:06:43;7.30;99.90
11812;DHT22;5963;50.184;9.162;2023-03-01T11:09:33;7.30;99.90
11812;DHT22;5963;50.184;9.162;2023-03-01T11:12:11;7.30;99.90
11812;DHT22;5963;50.184;9.162;2023-03-01T11:14:48;7.30;99.90
11812;DHT22;5963;50.184;9.162;2023-03-01T11:17:24;7.50;99.40
11812;DHT22;5963;50.184;9.162;2023-03-01T11:20:02;7.60;99.30
11812;DHT22;5963;50.184;9.162;2023-03-01T11:22:35;7.70;98.80
11812;DHT22;5963;50.184;9.162;2023-03-01T11:25:11;7.80;98.20
11812;DHT22;5963;50.184;9.162;2023-03-01T11:27:45;7.60;98.00
11812;DHT22;5963;50.184;9.162;2023-03-01T11:30:20;7.80;96.60
11812;DHT22;5963;50.184;9.162;2023-03-01T11:32:56;7.70;96.90
11812;DHT22;5963;50.184;9.162;2023-03-01T11:35:31;7.80;97.30
11812;DHT22;5963;50.184;9.162;2023-03-01T11:38:12;7.80;96.80
11812;DHT22;5963;50.184;9.162;2023-03-01T11:40:55;8.00;96.20
11812;DHT22;5963;50.184;9.162;2023-03-01T11:43:35;8.20;94.60
11812;DHT22;5963;50.184;9.162;2023-03-01T11:46:35;8.10;94.70
11812;DHT22;5963;50.184;9.162;2023-03-01T11:49:40;8.00;95.10
11812;DHT22;5963;50.184;9.162;2023-03-01T11:52:20;8.10;94.20
11812;DHT22;5963;50.184;9.162;2023-03-01T11:55:01;8.30;94.20
11812;DHT22;5963;50.184;9.162;2023-03-01T11:57:43;8.40;94.10
11812;DHT22;5963;50.184;9.162;2023-03-01T12:00:23;8.40;94.30
11812;DHT22;5963;50.184;9.162;2023-03-01T12:03:21;8.30;94.00
11812;DHT22;5963;50.184;9.162;2023-03-01T12:08:48;8.40;92.80
11812;DHT22;5963;50.184;9.162;2023-03-01T12:11:26;8.50;92.60
11812;DHT22;5963;50.184;9.162;2023-03-01T12:14:16;8.50;93.40
11812;DHT22;5963;50.184;9.162;2023-03-01T12:17:00;8.30;92.80
11812;DHT22;5963;50.184;9.162;2023-03-01T12:19:52;8.40;92.70
11812;DHT22;5963;50.184;9.162;2023-03-01T12:22:31;8.60;93.40
11812;DHT22;5963;50.184;9.162;2023-03-01T12:25:19;8.30;93.00
11812;DHT22;5963;50.184;9.162;2023-03-01T12:28:08;8.10;93.20
11812;DHT22;5963;50.184;9.162;2023-03-01T12:30:57;8.20;93.50
11812;DHT22;5963;50.184;9.162;2023-03-01T12:33:35;8.60;92.80
11812;DHT22;5963;50.184;9.162;2023-03-01T12:36:26;8.80;93.00
11812;DHT22;5963;50.184;9.162;2023-03-01T12:39:06;8.70;93.10
11812;DHT22;5963;50.184;9.162;2023-03-01T12:41:50;8.60;93.20
11812;DHT22;5963;50.184;9.162;2023-03-01T12:44:34;8.70;93.30
11812;DHT22;5963;50.184;9.162;2023-03-01T12:47:23;8.50;92.50
11812;DHT22;5963;50.184;9.162;2023-03-01T12:49:57;8.50;93.00
11812;DHT22;5963;50.184;9.162;2023-03-01T12:52:35;8.60;93.10
11812;DHT22;5963;50.184;9.162;2023-03-01T12:55:15;8.60;93.20
11812;DHT22;5963;50.184;9.162;2023-03-01T12:57:51;8.70;92.80
11812;DHT22;5963;50.184;9.162;2023-03-01T13:00:27;8.40;92.80
11812;DHT22;5963;50.184;9.162;2023-03-01T13:03:03;8.30;92.60
11812;DHT22;5963;50.184;9.162;2023-03-01T13:05:45;8.40;93.40
11812;DHT22;5963;50.184;9.162;2023-03-01T13:08:29;8.70;92.50
11812;DHT22;5963;50.184;9.162;2023-03-01T13:11:03;8.90;92.40
11812;DHT22;5963;50.184;9.162;2023-03-01T13:13:34;8.80;92.10
11812;DHT22;5963;50.184;9.162;2023-03-01T13:16:21;8.80;91.70
11812;DHT22;5963;50.184;9.162;2023-03-01T13:19:06;8.80;91.90
11812;DHT22;5963;50.184;9.162;2023-03-01T13:21:39;8.50;92.30
11812;DHT22;5963;50.184;9.162;2023-03-01T13:24:29;8.40;93.10
11812;DHT22;5963;50.184;9.162;2023-03-01T13:27:23;8.70;92.90
11812;DHT22;5963;50.184;9.162;2023-03-01T13:29:59;8.70;93.00
11812;DHT22;5963;50.184;9.162;2023-03-01T13:32:33;8.70;92.20
11812;DHT22;5963;50.184;9.162;2023-03-01T13:35:42;8.90;92.70
11812;DHT22;5963;50.184;9.162;2023-03-01T13:38:44;8.90;92.80
11812;DHT22;5963;50.184;9.162;2023-03-01T13:41:16;8.90;92.80
11812;DHT22;5963;50.184;9.162;2023-03-01T13:43:47;8.80;92.40
11812;DHT22;5963;50.184;9.162;2023-03-01T13:46:20;8.50;92.80
11812;DHT22;5963;50.184;9.162;2023-03-01T13:48:55;8.50;93.20
11812;DHT22;5963;50.184;9.162;2023-03-01T13:51:28;8.30;92.70
11812;DHT22;5963;50.184;9.162;2023-03-01T13:53:59;8.40;93.10
11812;DHT22;5963;50.184;9.162;2023-03-01T13:56:36;8.40;92.90
11812;DHT22;5963;50.184;9.162;2023-03-01T13:59:06;8.50;93.00
11812;DHT22;5963;50.184;9.162;2023-03-01T14:01:42;8.60;93.10
11812;DHT22;5963;50.184;9.162;2023-03-01T14:04:22;8.40;93.40
11812;DHT22;5963;50.184;9.162;2023-03-01T14:06:55;8.60;93.80
11812;DHT22;5963;50.184;9.162;2023-03-01T14:09:41;8.50;94.50
11812;DHT22;5963;50.184;9.162;2023-03-01T14:12:25;8.60;94.40
11812;DHT22;5963;50.184;9.162;2023-03-01T14:14:59;8.70;94.30
11812;DHT22;5963;50.184;9.162;2023-03-01T14:17:46;8.60;94.40
11812;DHT22;5963;50.184;9.162;2023-03-01T14:20:22;8.40;95.00
11812;DHT22;5963;50.184;9.162;2023-03-01T14:22:57;8.40;94.80
11812;DHT22;5963;50.184;9.162;2023-03-01T14:25:29;8.30;94.40
11812;DHT22;5963;50.184;9.162;2023-03-01T14:28:02;8.50;94.50
11812;DHT22;5963;50.184;9.162;2023-03-01T14:30:35;8.40;94.80
11812;DHT22;5963;50.184;9.162;2023-03-01T14:33:18;8.60;94.50
11812;DHT22;5963;50.184;9.162;2023-03-01T14:35:53;8.60;94.50
11812;DHT22;5963;50.184;9.162;2023-03-01T14:38:28;8.20;94.60
11812;DHT22;5963;50.184;9.162;2023-03-01T14:41:00;8.30;94.60
11812;DHT22;5963;50.184;9.162;2023-03-01T14:43:35;8.40;94.80
11812;DHT22;5963;50.184;9.162;2023-03-01T14:46:05;8.40;95.30
11812;DHT22;5963;50.184;9.162;2023-03-01T14:48:35;8.30;95.70
11812;DHT22;5963;50.184;9.162;2023-03-01T14:51:07;8.20;95.50
11812;DHT22;5963;50.184;9.162;2023-03-01T14:53:39;8.20;95.70
11812;DHT22;5963;50.184;9.162;2023-03-01T14:56:19;8.20;96.00
11812;DHT22;5963;50.184;9.162;2023-03-01T14:58:53;8.20;96.50
11812;DHT22;5963;50.184;9.162;2023-03-01T15:01:23;8.10;95.70
11812;DHT22;5963;50.184;9.162;2023-03-01T15:03:54;8.00;96.50
11812;DHT22;5963;50.184;9.162;2023-03-01T15:06:24;8.00;96.60
11812;DHT22;5963;50.184;9.162;2023-03-01T15:08:56;7.90;96.50
11812;DHT22;5963;50.184;9.162;2023-03-01T15:11:29;7.90;96.60
11812;DHT22;5963;50.184;9.162;2023-03-01T15:13:59;7.90;96.70
11812;DHT22;5963;50.184;9.162;2023-03-01T15:16:31;7.90;96.60
11812;DHT22;5963;50.184;9.162;2023-03-01T15:19:04;7.90;96.70
11812;DHT22;5963;50.184;9.162;2023-03-01T15:21:35;7.80;96.70
11812;DHT22;5963;50.184;9.162;2023-03-01T15:24:15;7.80;97.00
11812;DHT22;5963;50.184;9.162;2023-03-01T15:26:52;7.60;96.90
11812;DHT22;5963;50.184;9.162;2023-03-01T15:29:25;7.40;97.30
11812;DHT22;5963;50.184;9.162;2023-03-01T15:31:59;7.20;97.30
11812;DHT22;5963;50.184;9.162;2023-03-01T15:34:33;7.10;97.60
11812;DHT22;5963;50.184;9.162;2023-03-01T15:37:32;6.90;97.70
11812;DHT22;5963;50.184;9.162;2023-03-01T15:39:57;6.80;97.90
11812;DHT22;5963;50.184;9.162;2023-03-01T15:42:39;6.70;98.50
11812;DHT22;5963;50.184;9.162;2023-03-01T15:45:10;6.60;98.40
11812;DHT22;5963;50.184;9.162;2023-03-01T15:47:46;6.60;98.70
11812;DHT22;5963;50.184;9.162;2023-03-01T15:50:20;6.50;98.70
11812;DHT22;5963;50.184;9.162;2023-03-01T15:52:51;6.50;98.90
11812;DHT22;5963;50.184;9.162;2023-03-01T15:55:25;6.40;98.70
11812;DHT22;5963;50.184;9.162;2023-03-01T15:58:01;6.40;98.90
11812;DHT22;5963;50.184;9.162;2023-03-01T16:00:32;6.30;98.30
11812;DHT22;5963;50.184;9.162;2023-03-01T16:03:02;6.30;98.30
11812;DHT22;5963;50.184;9.162;2023-03-01T16:05:34;6.30;98.20
11812;DHT22;5963;50.184;9.162;2023-03-01T16:08:06;6.20;98.50
11812;DHT22;5963;50.184;9.162;2023-03-01T16:10:37;6.10;98.90
11812;DHT22;5963;50.184;9.162;2023-03-01T16:13:07;6.10;98.70
11812;DHT22;5963;50.184;9.162;2023-03-01T16:15:37;6.10;98.60
11812;DHT22;5963;50.184;9.162;2023-03-01T16:18:08;6.00;98.50
11812;DHT22;5963;50.184;9.162;2023-03-01T16:20:40;5.90;98.70
11812;DHT22;5963;50.184;9.162;2023-03-01T16:23:12;5.90;98.80
11812;DHT22;5963;50.184;9.162;2023-03-01T16:25:44;5.90;98.40
11812;DHT22;5963;50.184;9.162;2023-03-01T16:28:14;5.80;98.60
11812;DHT22;5963;50.184;9.162;2023-03-01T16:30:47;5.80;98.50
11812;DHT22;5963;50.184;9.162;2023-03-01T16:33:19;5.80;98.70
11812;DHT22;5963;50.184;9.162;2023-03-01T16:36:01;5.80;98.60
11812;DHT22;5963;50.184;9.162;2023-03-01T16:38:33;5.70;98.90
11812;DHT22;5963;50.184;9.162;2023-03-01T16:41:04;5.70;98.80
11812;DHT22;5963;50.184;9.162;2023-03-01T16:43:36;5.60;98.70